CYEK

Details ICAO CYEK (YEK)
Name ARVIAT
Region Canada
Timezone America/Rankin_Inlet (UTC-5.0)
Plans Departing 4
Arriving 10
Stats Elevation 32 ft / 10 m (AMSL)
Location 61.094167° -94.070834°
Runways 1
Magnetic Variation 3.172° W
Sunrise 2018-05-22 09:14:38 UTC / 2018-05-22 04:14:38 Local
Sunset 2018-05-23 03:14:10 UTC / 2018-05-22 22:14:10 Local
Advertisement - Login to hide

Runways

ID Width Length Bearing (true) Bearing (mag) Surface Threshold Offset Overrun Length
15T 100 ft / 30 m 3,991 ft / 1,216 m 149.03° 152.20° Gravel 0 ft / 0 m 0 ft / 0 m
33T 100 ft / 30 m 3,991 ft / 1,216 m 329.05° 332.22° Gravel 0 ft / 0 m 0 ft / 0 m

Map

Weather


0- 5 10 15 20 25 30 35+ Temperature / ° C

Clouds and Precipitation
Forecast for 2018-05-22 06:00 UTC. Updated 4 hours ago

Ground ~20,000 ft ~40,000 ft Winds

METAR

CYEK 220900Z AUTO 31004KT 9SM OVC019 M08/M09 A3025 RMK SLP246

TAF

TAF CYEK 220538Z 2206/2218 35006KT P6SM -SN BKN015 TEMPO 2206/2218 P6SM NSW BKN025 RMK FCST BASED ON AUTO OBS. NXT FCST BY 221200Z

Frequencies

Recorded 128.70 MHz AWOS
Warning: Do not use this data for real-world aviation or navigation. No guarantee of current accuracy is given.